sensor_id;sensor_type;location;lat;lon;timestamp;P1;durP1;ratioP1;P2;durP2;ratioP2
20988;SDS011;10653;47.052;15.410;2023-06-14T00:01:32;3.60;;;3.20;;
20988;SDS011;10653;47.052;15.410;2023-06-14T00:03:59;4.37;;;3.00;;
20988;SDS011;10653;47.052;15.410;2023-06-14T00:06:26;4.67;;;4.13;;
20988;SDS011;10653;47.052;15.410;2023-06-14T00:08:52;4.40;;;3.50;;
20988;SDS011;10653;47.052;15.410;2023-06-14T00:11:19;4.50;;;3.23;;
20988;SDS011;10653;47.052;15.410;2023-06-14T00:13:45;4.30;;;3.90;;
20988;SDS011;10653;47.052;15.410;2023-06-14T00:16:11;4.10;;;3.70;;
20988;SDS011;10653;47.052;15.410;2023-06-14T00:18:37;4.90;;;3.90;;
20988;SDS011;10653;47.052;15.410;2023-06-14T00:21:04;3.93;;;3.53;;
20988;SDS011;10653;47.052;15.410;2023-06-14T00:23:30;3.77;;;3.40;;
20988;SDS011;10653;47.052;15.410;2023-06-14T00:25:56;7.93;;;3.57;;
20988;SDS011;10653;47.052;15.410;2023-06-14T00:28:22;3.83;;;3.00;;
20988;SDS011;10653;47.052;15.410;2023-06-14T00:30:48;3.70;;;3.40;;
20988;SDS011;10653;47.052;15.410;2023-06-14T00:33:14;4.90;;;3.57;;
20988;SDS011;10653;47.052;15.410;2023-06-14T00:35:40;5.20;;;3.33;;
20988;SDS011;10653;47.052;15.410;2023-06-14T00:38:06;4.10;;;3.70;;
20988;SDS011;10653;47.052;15.410;2023-06-14T00:40:32;3.97;;;3.63;;
20988;SDS011;10653;47.052;15.410;2023-06-14T00:42:59;4.70;;;3.20;;
20988;SDS011;10653;47.052;15.410;2023-06-14T00:45:26;6.40;;;3.63;;
20988;SDS011;10653;47.052;15.410;2023-06-14T00:47:52;4.50;;;4.10;;
20988;SDS011;10653;47.052;15.410;2023-06-14T00:50:20;3.87;;;3.57;;
20988;SDS011;10653;47.052;15.410;2023-06-14T00:52:48;5.40;;;4.67;;
20988;SDS011;10653;47.052;15.410;2023-06-14T00:55:14;4.50;;;4.10;;
20988;SDS011;10653;47.052;15.410;2023-06-14T00:57:40;5.90;;;4.03;;
20988;SDS011;10653;47.052;15.410;2023-06-14T01:00:07;5.50;;;4.00;;
20988;SDS011;10653;47.052;15.410;2023-06-14T01:02:37;5.53;;;5.00;;
20988;SDS011;10653;47.052;15.410;2023-06-14T01:05:04;7.20;;;4.47;;
20988;SDS011;10653;47.052;15.410;2023-06-14T01:15:23;5.50;;;4.53;;
20988;SDS011;10653;47.052;15.410;2023-06-14T01:17:50;4.00;;;3.60;;
20988;SDS011;10653;47.052;15.410;2023-06-14T01:20:21;3.90;;;3.60;;
20988;SDS011;10653;47.052;15.410;2023-06-14T01:22:51;5.57;;;3.57;;
20988;SDS011;10653;47.052;15.410;2023-06-14T01:25:17;3.87;;;3.53;;
20988;SDS011;10653;47.052;15.410;2023-06-14T01:28:08;3.90;;;3.60;;
20988;SDS011;10653;47.052;15.410;2023-06-14T01:30:35;4.07;;;3.57;;
20988;SDS011;10653;47.052;15.410;2023-06-14T01:33:02;4.17;;;3.70;;
20988;SDS011;10653;47.052;15.410;2023-06-14T01:35:29;4.40;;;3.67;;
20988;SDS011;10653;47.052;15.410;2023-06-14T01:37:55;4.60;;;4.20;;
20988;SDS011;10653;47.052;15.410;2023-06-14T01:40:22;4.57;;;3.30;;
20988;SDS011;10653;47.052;15.410;2023-06-14T01:42:49;4.37;;;3.97;;
20988;SDS011;10653;47.052;15.410;2023-06-14T01:45:15;4.03;;;3.60;;
20988;SDS011;10653;47.052;15.410;2023-06-14T01:47:42;4.87;;;4.13;;
20988;SDS011;10653;47.052;15.410;2023-06-14T01:50:09;4.67;;;3.73;;
20988;SDS011;10653;47.052;15.410;2023-06-14T01:52:36;5.57;;;3.70;;
20988;SDS011;10653;47.052;15.410;2023-06-14T01:55:03;5.47;;;4.37;;
20988;SDS011;10653;47.052;15.410;2023-06-14T01:57:29;4.07;;;3.67;;
20988;SDS011;10653;47.052;15.410;2023-06-14T01:59:55;4.70;;;4.20;;
20988;SDS011;10653;47.052;15.410;2023-06-14T02:02:21;5.27;;;3.87;;
20988;SDS011;10653;47.052;15.410;2023-06-14T02:04:47;4.23;;;3.83;;
20988;SDS011;10653;47.052;15.410;2023-06-14T02:07:13;4.50;;;4.10;;
20988;SDS011;10653;47.052;15.410;2023-06-14T02:09:40;4.33;;;3.30;;
20988;SDS011;10653;47.052;15.410;2023-06-14T02:12:06;4.57;;;4.10;;
20988;SDS011;10653;47.052;15.410;2023-06-14T02:14:32;4.30;;;3.90;;
20988;SDS011;10653;47.052;15.410;2023-06-14T02:16:58;4.80;;;3.93;;
20988;SDS011;10653;47.052;15.410;2023-06-14T02:19:26;4.43;;;4.00;;
20988;SDS011;10653;47.052;15.410;2023-06-14T02:21:52;3.93;;;3.60;;
20988;SDS011;10653;47.052;15.410;2023-06-14T02:24:18;4.40;;;3.40;;
20988;SDS011;10653;47.052;15.410;2023-06-14T02:26:45;4.47;;;4.07;;
20988;SDS011;10653;47.052;15.410;2023-06-14T02:29:11;5.30;;;4.33;;
20988;SDS011;10653;47.052;15.410;2023-06-14T02:31:39;4.80;;;4.33;;
20988;SDS011;10653;47.052;15.410;2023-06-14T02:34:05;6.10;;;4.27;;
20988;SDS011;10653;47.052;15.410;2023-06-14T02:36:33;5.20;;;4.53;;
20988;SDS011;10653;47.052;15.410;2023-06-14T02:38:59;3.90;;;3.60;;
20988;SDS011;10653;47.052;15.410;2023-06-14T02:41:26;6.17;;;4.83;;
20988;SDS011;10653;47.052;15.410;2023-06-14T02:43:52;6.20;;;4.30;;
20988;SDS011;10653;47.052;15.410;2023-06-14T02:46:18;5.20;;;3.80;;
20988;SDS011;10653;47.052;15.410;2023-06-14T02:48:44;4.43;;;4.00;;
20988;SDS011;10653;47.052;15.410;2023-06-14T02:51:10;7.47;;;4.53;;
20988;SDS011;10653;47.052;15.410;2023-06-14T02:53:37;4.13;;;3.83;;
20988;SDS011;10653;47.052;15.410;2023-06-14T02:56:03;4.80;;;4.17;;
20988;SDS011;10653;47.052;15.410;2023-06-14T02:58:29;5.20;;;4.70;;
20988;SDS011;10653;47.052;15.410;2023-06-14T03:00:56;4.50;;;4.10;;
20988;SDS011;10653;47.052;15.410;2023-06-14T03:03:22;7.97;;;4.13;;
20988;SDS011;10653;47.052;15.410;2023-06-14T03:05:49;4.50;;;4.10;;
20988;SDS011;10653;47.052;15.410;2023-06-14T03:08:16;5.03;;;4.10;;
20988;SDS011;10653;47.052;15.410;2023-06-14T03:10:47;4.47;;;4.07;;
20988;SDS011;10653;47.052;15.410;2023-06-14T03:13:13;4.97;;;4.03;;
20988;SDS011;10653;47.052;15.410;2023-06-14T03:15:39;4.97;;;4.40;;
20988;SDS011;10653;47.052;15.410;2023-06-14T03:18:06;7.83;;;4.37;;
20988;SDS011;10653;47.052;15.410;2023-06-14T03:20:33;3.77;;;3.47;;
20988;SDS011;10653;47.052;15.410;2023-06-14T03:23:00;4.50;;;3.47;;
20988;SDS011;10653;47.052;15.410;2023-06-14T03:25:27;4.67;;;4.10;;
20988;SDS011;10653;47.052;15.410;2023-06-14T03:27:54;4.30;;;3.90;;
20988;SDS011;10653;47.052;15.410;2023-06-14T03:30:20;4.60;;;4.20;;
20988;SDS011;10653;47.052;15.410;2023-06-14T03:32:47;4.20;;;3.80;;
20988;SDS011;10653;47.052;15.410;2023-06-14T03:35:13;4.23;;;3.93;;
20988;SDS011;10653;47.052;15.410;2023-06-14T03:37:45;4.40;;;3.57;;
20988;SDS011;10653;47.052;15.410;2023-06-14T03:40:12;4.20;;;3.40;;
20988;SDS011;10653;47.052;15.410;2023-06-14T03:42:38;4.90;;;4.40;;
20988;SDS011;10653;47.052;15.410;2023-06-14T03:45:05;7.30;;;3.93;;
20988;SDS011;10653;47.052;15.410;2023-06-14T03:47:32;5.07;;;4.17;;
20988;SDS011;10653;47.052;15.410;2023-06-14T03:49:58;5.63;;;4.23;;
20988;SDS011;10653;47.052;15.410;2023-06-14T03:52:25;3.83;;;3.53;;
20988;SDS011;10653;47.052;15.410;2023-06-14T03:54:51;6.60;;;5.07;;
20988;SDS011;10653;47.052;15.410;2023-06-14T03:57:18;6.77;;;3.80;;
20988;SDS011;10653;47.052;15.410;2023-06-14T03:59:45;5.20;;;3.70;;
20988;SDS011;10653;47.052;15.410;2023-06-14T04:02:12;4.60;;;3.80;;
20988;SDS011;10653;47.052;15.410;2023-06-14T04:04:41;5.47;;;4.33;;
20988;SDS011;10653;47.052;15.410;2023-06-14T04:07:09;5.10;;;4.63;;
20988;SDS011;10653;47.052;15.410;2023-06-14T04:09:36;3.90;;;3.50;;
20988;SDS011;10653;47.052;15.410;2023-06-14T04:12:02;5.20;;;3.80;;
20988;SDS011;10653;47.052;15.410;2023-06-14T04:14:28;4.67;;;4.20;;
20988;SDS011;10653;47.052;15.410;2023-06-14T04:16:55;5.60;;;4.60;;
20988;SDS011;10653;47.052;15.410;2023-06-14T04:19:21;4.30;;;3.83;;
20988;SDS011;10653;47.052;15.410;2023-06-14T04:21:47;4.73;;;4.33;;
20988;SDS011;10653;47.052;15.410;2023-06-14T04:24:13;4.20;;;3.80;;
20988;SDS011;10653;47.052;15.410;2023-06-14T04:26:41;6.00;;;4.43;;
20988;SDS011;10653;47.052;15.410;2023-06-14T04:29:09;4.87;;;4.33;;
20988;SDS011;10653;47.052;15.410;2023-06-14T04:31:39;6.83;;;4.83;;
20988;SDS011;10653;47.052;15.410;2023-06-14T04:34:05;5.93;;;4.80;;
20988;SDS011;10653;47.052;15.410;2023-06-14T04:36:32;5.90;;;5.10;;
20988;SDS011;10653;47.052;15.410;2023-06-14T04:39:00;6.03;;;4.77;;
20988;SDS011;10653;47.052;15.410;2023-06-14T04:41:28;5.40;;;4.87;;
20988;SDS011;10653;47.052;15.410;2023-06-14T04:43:59;5.73;;;5.10;;
20988;SDS011;10653;47.052;15.410;2023-06-14T04:46:29;5.47;;;4.90;;
20988;SDS011;10653;47.052;15.410;2023-06-14T04:48:56;7.00;;;4.83;;
20988;SDS011;10653;47.052;15.410;2023-06-14T04:51:25;6.43;;;5.10;;
20988;SDS011;10653;47.052;15.410;2023-06-14T04:53:57;6.07;;;4.80;;
20988;SDS011;10653;47.052;15.410;2023-06-14T04:56:24;5.83;;;4.47;;
20988;SDS011;10653;47.052;15.410;2023-06-14T04:58:51;5.63;;;5.13;;
20988;SDS011;10653;47.052;15.410;2023-06-14T05:01:18;4.63;;;4.20;;
20988;SDS011;10653;47.052;15.410;2023-06-14T05:03:44;6.73;;;5.87;;
20988;SDS011;10653;47.052;15.410;2023-06-14T05:06:14;8.23;;;5.43;;
20988;SDS011;10653;47.052;15.410;2023-06-14T05:08:40;5.20;;;4.67;;
20988;SDS011;10653;47.052;15.410;2023-06-14T05:11:06;6.50;;;5.37;;
20988;SDS011;10653;47.052;15.410;2023-06-14T05:13:32;5.63;;;5.13;;
20988;SDS011;10653;47.052;15.410;2023-06-14T05:15:59;5.20;;;4.70;;
20988;SDS011;10653;47.052;15.410;2023-06-14T05:18:25;4.43;;;3.97;;
20988;SDS011;10653;47.052;15.410;2023-06-14T05:20:51;5.80;;;5.20;;
20988;SDS011;10653;47.052;15.410;2023-06-14T05:23:17;7.40;;;4.93;;
20988;SDS011;10653;47.052;15.410;2023-06-14T05:25:44;6.47;;;5.10;;
20988;SDS011;10653;47.052;15.410;2023-06-14T05:28:10;5.93;;;5.30;;
20988;SDS011;10653;47.052;15.410;2023-06-14T05:30:39;5.47;;;4.97;;
20988;SDS011;10653;47.052;15.410;2023-06-14T05:33:06;5.57;;;4.97;;
20988;SDS011;10653;47.052;15.410;2023-06-14T05:35:32;7.50;;;4.70;;
20988;SDS011;10653;47.052;15.410;2023-06-14T05:37:58;5.77;;;4.70;;
20988;SDS011;10653;47.052;15.410;2023-06-14T05:40:24;5.07;;;4.60;;
20988;SDS011;10653;47.052;15.410;2023-06-14T05:42:50;7.00;;;5.80;;
20988;SDS011;10653;47.052;15.410;2023-06-14T05:45:16;6.40;;;4.40;;
20988;SDS011;10653;47.052;15.410;2023-06-14T05:47:42;7.33;;;6.20;;
20988;SDS011;10653;47.052;15.410;2023-06-14T05:50:08;5.70;;;4.77;;
20988;SDS011;10653;47.052;15.410;2023-06-14T05:52:35;5.97;;;4.53;;
20988;SDS011;10653;47.052;15.410;2023-06-14T05:55:02;5.23;;;4.67;;
20988;SDS011;10653;47.052;15.410;2023-06-14T05:57:28;8.60;;;5.37;;
20988;SDS011;10653;47.052;15.410;2023-06-14T05:59:54;10.10;;;6.47;;
20988;SDS011;10653;47.052;15.410;2023-06-14T06:02:20;6.30;;;5.00;;
20988;SDS011;10653;47.052;15.410;2023-06-14T06:04:46;6.43;;;5.40;;
20988;SDS011;10653;47.052;15.410;2023-06-14T06:07:12;6.60;;;5.83;;
20988;SDS011;10653;47.052;15.410;2023-06-14T06:09:38;5.40;;;4.80;;
20988;SDS011;10653;47.052;15.410;2023-06-14T06:12:05;6.63;;;5.70;;
20988;SDS011;10653;47.052;15.410;2023-06-14T06:14:32;6.10;;;5.50;;
20988;SDS011;10653;47.052;15.410;2023-06-14T06:16:58;5.63;;;5.13;;
20988;SDS011;10653;47.052;15.410;2023-06-14T06:19:24;6.50;;;5.37;;
20988;SDS011;10653;47.052;15.410;2023-06-14T06:21:50;7.93;;;4.97;;
20988;SDS011;10653;47.052;15.410;2023-06-14T06:24:16;6.60;;;5.40;;
20988;SDS011;10653;47.052;15.410;2023-06-14T06:26:42;10.57;;;5.47;;
20988;SDS011;10653;47.052;15.410;2023-06-14T06:29:08;5.90;;;4.90;;
20988;SDS011;10653;47.052;15.410;2023-06-14T06:31:35;6.53;;;5.60;;
20988;SDS011;10653;47.052;15.410;2023-06-14T06:34:01;10.43;;;8.80;;
20988;SDS011;10653;47.052;15.410;2023-06-14T06:36:27;9.63;;;7.00;;
20988;SDS011;10653;47.052;15.410;2023-06-14T06:38:53;11.60;;;6.37;;
20988;SDS011;10653;47.052;15.410;2023-06-14T06:41:19;24.90;;;8.67;;
20988;SDS011;10653;47.052;15.410;2023-06-14T06:43:45;16.20;;;6.97;;
20988;SDS011;10653;47.052;15.410;2023-06-14T06:46:11;10.93;;;6.70;;
20988;SDS011;10653;47.052;15.410;2023-06-14T06:48:38;7.77;;;5.60;;
20988;SDS011;10653;47.052;15.410;2023-06-14T06:51:04;8.20;;;5.60;;
20988;SDS011;10653;47.052;15.410;2023-06-14T06:53:30;7.43;;;6.00;;
20988;SDS011;10653;47.052;15.410;2023-06-14T06:55:56;15.20;;;7.23;;
20988;SDS011;10653;47.052;15.410;2023-06-14T06:58:22;10.40;;;6.37;;
20988;SDS011;10653;47.052;15.410;2023-06-14T07:00:48;8.33;;;5.50;;
20988;SDS011;10653;47.052;15.410;2023-06-14T07:03:14;7.40;;;5.10;;
20988;SDS011;10653;47.052;15.410;2023-06-14T07:05:41;5.97;;;5.20;;
20988;SDS011;10653;47.052;15.410;2023-06-14T07:08:07;6.67;;;5.13;;
20988;SDS011;10653;47.052;15.410;2023-06-14T07:10:33;6.20;;;4.87;;
20988;SDS011;10653;47.052;15.410;2023-06-14T07:12:59;5.80;;;4.23;;
20988;SDS011;10653;47.052;15.410;2023-06-14T07:15:25;5.30;;;4.57;;
20988;SDS011;10653;47.052;15.410;2023-06-14T07:17:51;7.90;;;5.27;;
20988;SDS011;10653;47.052;15.410;2023-06-14T07:20:18;5.70;;;4.40;;
20988;SDS011;10653;47.052;15.410;2023-06-14T07:22:47;5.83;;;4.30;;
20988;SDS011;10653;47.052;15.410;2023-06-14T07:25:13;4.60;;;3.80;;
20988;SDS011;10653;47.052;15.410;2023-06-14T07:27:43;4.63;;;4.23;;
20988;SDS011;10653;47.052;15.410;2023-06-14T07:30:09;5.17;;;4.00;;
20988;SDS011;10653;47.052;15.410;2023-06-14T07:32:36;4.47;;;3.90;;
20988;SDS011;10653;47.052;15.410;2023-06-14T07:35:02;5.93;;;3.97;;
20988;SDS011;10653;47.052;15.410;2023-06-14T07:37:28;5.07;;;4.43;;
20988;SDS011;10653;47.052;15.410;2023-06-14T07:39:54;4.50;;;4.10;;
20988;SDS011;10653;47.052;15.410;2023-06-14T07:42:20;4.97;;;4.47;;
20988;SDS011;10653;47.052;15.410;2023-06-14T07:44:46;4.30;;;3.47;;
20988;SDS011;10653;47.052;15.410;2023-06-14T07:47:12;4.70;;;4.20;;
20988;SDS011;10653;47.052;15.410;2023-06-14T07:49:38;4.50;;;4.00;;
20988;SDS011;10653;47.052;15.410;2023-06-14T07:52:05;6.27;;;4.30;;
20988;SDS011;10653;47.052;15.410;2023-06-14T07:54:31;4.13;;;3.73;;
20988;SDS011;10653;47.052;15.410;2023-06-14T07:56:57;4.63;;;4.20;;
20988;SDS011;10653;47.052;15.410;2023-06-14T07:59:25;5.83;;;4.40;;
20988;SDS011;10653;47.052;15.410;2023-06-14T08:01:51;5.27;;;4.30;;
20988;SDS011;10653;47.052;15.410;2023-06-14T08:04:17;4.70;;;4.00;;
20988;SDS011;10653;47.052;15.410;2023-06-14T08:06:43;4.10;;;3.70;;
20988;SDS011;10653;47.052;15.410;2023-06-14T08:09:10;5.73;;;4.00;;
20988;SDS011;10653;47.052;15.410;2023-06-14T08:11:36;4.77;;;4.20;;
20988;SDS011;10653;47.052;15.410;2023-06-14T08:14:02;4.70;;;4.03;;
20988;SDS011;10653;47.052;15.410;2023-06-14T08:16:28;5.93;;;4.40;;
20988;SDS011;10653;47.052;15.410;2023-06-14T08:18:55;4.33;;;3.93;;
20988;SDS011;10653;47.052;15.410;2023-06-14T08:21:21;7.77;;;4.43;;
20988;SDS011;10653;47.052;15.410;2023-06-14T08:23:47;6.30;;;4.20;;
20988;SDS011;10653;47.052;15.410;2023-06-14T08:26:13;4.80;;;4.10;;
20988;SDS011;10653;47.052;15.410;2023-06-14T08:28:39;6.63;;;5.20;;
20988;SDS011;10653;47.052;15.410;2023-06-14T08:31:05;5.17;;;4.67;;
20988;SDS011;10653;47.052;15.410;2023-06-14T08:33:31;5.30;;;4.90;;
20988;SDS011;10653;47.052;15.410;2023-06-14T08:36:00;5.17;;;4.73;;
20988;SDS011;10653;47.052;15.410;2023-06-14T08:38:26;6.37;;;5.20;;
20988;SDS011;10653;47.052;15.410;2023-06-14T08:40:52;5.60;;;5.10;;
20988;SDS011;10653;47.052;15.410;2023-06-14T08:43:18;5.67;;;4.67;;
20988;SDS011;10653;47.052;15.410;2023-06-14T08:45:46;4.33;;;3.93;;
20988;SDS011;10653;47.052;15.410;2023-06-14T08:48:12;5.00;;;4.50;;
20988;SDS011;10653;47.052;15.410;2023-06-14T08:50:42;6.07;;;5.40;;
20988;SDS011;10653;47.052;15.410;2023-06-14T08:53:09;5.87;;;4.77;;
20988;SDS011;10653;47.052;15.410;2023-06-14T08:55:38;6.80;;;5.30;;
20988;SDS011;10653;47.052;15.410;2023-06-14T08:58:04;5.70;;;5.10;;
20988;SDS011;10653;47.052;15.410;2023-06-14T09:00:30;6.77;;;5.60;;
20988;SDS011;10653;47.052;15.410;2023-06-14T09:02:58;7.23;;;5.53;;
20988;SDS011;10653;47.052;15.410;2023-06-14T09:05:27;6.37;;;5.53;;
20988;SDS011;10653;47.052;15.410;2023-06-14T09:07:54;5.27;;;4.83;;
20988;SDS011;10653;47.052;15.410;2023-06-14T09:10:21;6.50;;;5.80;;
20988;SDS011;10653;47.052;15.410;2023-06-14T09:12:48;6.13;;;5.23;;
20988;SDS011;10653;47.052;15.410;2023-06-14T09:15:14;7.20;;;5.30;;
20988;SDS011;10653;47.052;15.410;2023-06-14T09:17:40;9.00;;;5.70;;
20988;SDS011;10653;47.052;15.410;2023-06-14T09:20:07;6.73;;;6.13;;
20988;SDS011;10653;47.052;15.410;2023-06-14T09:22:35;8.10;;;6.17;;
20988;SDS011;10653;47.052;15.410;2023-06-14T09:25:02;5.70;;;5.20;;
20988;SDS011;10653;47.052;15.410;2023-06-14T09:27:28;6.60;;;6.07;;
20988;SDS011;10653;47.052;15.410;2023-06-14T09:29:54;6.10;;;5.50;;
20988;SDS011;10653;47.052;15.410;2023-06-14T09:32:21;9.63;;;5.73;;
20988;SDS011;10653;47.052;15.410;2023-06-14T09:34:47;6.60;;;5.13;;
20988;SDS011;10653;47.052;15.410;2023-06-14T09:37:25;5.70;;;5.03;;
20988;SDS011;10653;47.052;15.410;2023-06-14T09:39:52;8.00;;;5.10;;
20988;SDS011;10653;47.052;15.410;2023-06-14T09:42:18;5.50;;;5.00;;
20988;SDS011;10653;47.052;15.410;2023-06-14T09:44:48;5.87;;;5.37;;
20988;SDS011;10653;47.052;15.410;2023-06-14T09:47:14;5.60;;;4.03;;
20988;SDS011;10653;47.052;15.410;2023-06-14T09:49:41;6.50;;;5.90;;
20988;SDS011;10653;47.052;15.410;2023-06-14T09:52:10;6.20;;;5.23;;
20988;SDS011;10653;47.052;15.410;2023-06-14T09:54:36;5.47;;;4.77;;
20988;SDS011;10653;47.052;15.410;2023-06-14T09:57:05;6.67;;;4.97;;
20988;SDS011;10653;47.052;15.410;2023-06-14T09:59:31;6.80;;;4.50;;
20988;SDS011;10653;47.052;15.410;2023-06-14T10:01:58;5.87;;;3.90;;
20988;SDS011;10653;47.052;15.410;2023-06-14T10:04:25;4.80;;;4.40;;
20988;SDS011;10653;47.052;15.410;2023-06-14T10:06:53;5.63;;;4.80;;
20988;SDS011;10653;47.052;15.410;2023-06-14T10:09:20;6.00;;;4.37;;
20988;SDS011;10653;47.052;15.410;2023-06-14T10:11:47;5.80;;;5.17;;
20988;SDS011;10653;47.052;15.410;2023-06-14T10:14:13;5.30;;;4.80;;
20988;SDS011;10653;47.052;15.410;2023-06-14T10:16:45;5.20;;;4.70;;
20988;SDS011;10653;47.052;15.410;2023-06-14T10:19:24;5.63;;;3.50;;
20988;SDS011;10653;47.052;15.410;2023-06-14T10:21:58;5.40;;;4.30;;
20988;SDS011;10653;47.052;15.410;2023-06-14T10:24:28;6.80;;;4.90;;
20988;SDS011;10653;47.052;15.410;2023-06-14T10:26:57;6.90;;;4.67;;
20988;SDS011;10653;47.052;15.410;2023-06-14T10:29:23;4.23;;;3.83;;
20988;SDS011;10653;47.052;15.410;2023-06-14T10:31:50;5.07;;;4.57;;
20988;SDS011;10653;47.052;15.410;2023-06-14T10:36:55;4.87;;;3.87;;
20988;SDS011;10653;47.052;15.410;2023-06-14T10:39:26;4.07;;;3.27;;
20988;SDS011;10653;47.052;15.410;2023-06-14T10:41:53;5.50;;;4.30;;
20988;SDS011;10653;47.052;15.410;2023-06-14T10:46:45;5.90;;;4.43;;
20988;SDS011;10653;47.052;15.410;2023-06-14T10:49:12;3.80;;;3.30;;
20988;SDS011;10653;47.052;15.410;2023-06-14T10:51:38;3.53;;;3.20;;
20988;SDS011;10653;47.052;15.410;2023-06-14T10:54:14;5.23;;;3.37;;
20988;SDS011;10653;47.052;15.410;2023-06-14T10:56:47;3.30;;;3.00;;
20988;SDS011;10653;47.052;15.410;2023-06-14T10:59:13;3.83;;;3.20;;
20988;SDS011;10653;47.052;15.410;2023-06-14T11:04:18;3.20;;;2.90;;
20988;SDS011;10653;47.052;15.410;2023-06-14T11:06:49;4.63;;;3.03;;
20988;SDS011;10653;47.052;15.410;2023-06-14T11:09:24;4.10;;;3.57;;
20988;SDS011;10653;47.052;15.410;2023-06-14T11:11:55;3.27;;;2.93;;
20988;SDS011;10653;47.052;15.410;2023-06-14T11:14:22;5.60;;;3.80;;
20988;SDS011;10653;47.052;15.410;2023-06-14T11:16:51;3.60;;;3.30;;
20988;SDS011;10653;47.052;15.410;2023-06-14T11:19:17;4.00;;;3.50;;
20988;SDS011;10653;47.052;15.410;2023-06-14T11:21:43;3.20;;;2.90;;
20988;SDS011;10653;47.052;15.410;2023-06-14T11:24:12;4.20;;;3.40;;
20988;SDS011;10653;47.052;15.410;2023-06-14T11:26:39;6.03;;;3.83;;
20988;SDS011;10653;47.052;15.410;2023-06-14T11:29:05;6.07;;;4.37;;
20988;SDS011;10653;47.052;15.410;2023-06-14T11:31:32;4.13;;;3.73;;
20988;SDS011;10653;47.052;15.410;2023-06-14T11:33:58;4.17;;;3.40;;
20988;SDS011;10653;47.052;15.410;2023-06-14T11:36:28;4.30;;;3.70;;
20988;SDS011;10653;47.052;15.410;2023-06-14T11:38:58;3.30;;;3.00;;
20988;SDS011;10653;47.052;15.410;2023-06-14T11:41:24;4.80;;;4.00;;
20988;SDS011;10653;47.052;15.410;2023-06-14T11:43:53;3.83;;;3.50;;
20988;SDS011;10653;47.052;15.410;2023-06-14T11:46:19;4.83;;;4.23;;
20988;SDS011;10653;47.052;15.410;2023-06-14T11:48:49;3.87;;;3.50;;
20988;SDS011;10653;47.052;15.410;2023-06-14T11:51:15;4.10;;;3.70;;
20988;SDS011;10653;47.052;15.410;2023-06-14T11:53:42;4.97;;;3.83;;
20988;SDS011;10653;47.052;15.410;2023-06-14T11:56:08;6.80;;;3.67;;
20988;SDS011;10653;47.052;15.410;2023-06-14T11:58:34;4.63;;;3.50;;
20988;SDS011;10653;47.052;15.410;2023-06-14T12:01:01;3.97;;;3.10;;
20988;SDS011;10653;47.052;15.410;2023-06-14T12:03:28;4.00;;;3.50;;
20988;SDS011;10653;47.052;15.410;2023-06-14T12:06:04;5.03;;;3.17;;
20988;SDS011;10653;47.052;15.410;2023-06-14T12:08:35;3.73;;;3.40;;
20988;SDS011;10653;47.052;15.410;2023-06-14T12:11:04;3.57;;;3.27;;
20988;SDS011;10653;47.052;15.410;2023-06-14T12:13:31;4.77;;;3.43;;
20988;SDS011;10653;47.052;15.410;2023-06-14T12:15:57;13.30;;;5.57;;
20988;SDS011;10653;47.052;15.410;2023-06-14T12:18:33;6.70;;;4.00;;
20988;SDS011;10653;47.052;15.410;2023-06-14T12:20:59;4.20;;;3.20;;
20988;SDS011;10653;47.052;15.410;2023-06-14T12:23:48;5.27;;;3.93;;
20988;SDS011;10653;47.052;15.410;2023-06-14T12:26:16;4.07;;;3.60;;
20988;SDS011;10653;47.052;15.410;2023-06-14T12:28:44;4.07;;;3.77;;
20988;SDS011;10653;47.052;15.410;2023-06-14T12:31:14;4.23;;;3.70;;
20988;SDS011;10653;47.052;15.410;2023-06-14T12:33:40;4.50;;;4.10;;
20988;SDS011;10653;47.052;15.410;2023-06-14T12:36:06;5.30;;;3.93;;
20988;SDS011;10653;47.052;15.410;2023-06-14T12:38:33;8.37;;;3.70;;
20988;SDS011;10653;47.052;15.410;2023-06-14T12:40:59;17.37;;;5.07;;
20988;SDS011;10653;47.052;15.410;2023-06-14T12:43:25;4.00;;;3.33;;
20988;SDS011;10653;47.052;15.410;2023-06-14T12:45:52;3.70;;;3.40;;
20988;SDS011;10653;47.052;15.410;2023-06-14T12:48:18;3.63;;;3.30;;
20988;SDS011;10653;47.052;15.410;2023-06-14T12:50:44;5.27;;;3.70;;
20988;SDS011;10653;47.052;15.410;2023-06-14T12:53:10;4.13;;;3.77;;
20988;SDS011;10653;47.052;15.410;2023-06-14T12:55:36;4.33;;;3.97;;
20988;SDS011;10653;47.052;15.410;2023-06-14T12:58:02;6.07;;;3.60;;
20988;SDS011;10653;47.052;15.410;2023-06-14T13:00:28;4.00;;;3.30;;
20988;SDS011;10653;47.052;15.410;2023-06-14T13:02:55;4.30;;;3.60;;
20988;SDS011;10653;47.052;15.410;2023-06-14T13:05:22;5.53;;;4.03;;
20988;SDS011;10653;47.052;15.410;2023-06-14T13:07:48;6.80;;;3.93;;
20988;SDS011;10653;47.052;15.410;2023-06-14T13:10:14;5.03;;;4.53;;
20988;SDS011;10653;47.052;15.410;2023-06-14T13:12:40;3.87;;;3.47;;
20988;SDS011;10653;47.052;15.410;2023-06-14T13:15:06;3.70;;;3.40;;
20988;SDS011;10653;47.052;15.410;2023-06-14T13:17:33;5.03;;;3.27;;
20988;SDS011;10653;47.052;15.410;2023-06-14T13:20:03;4.37;;;3.97;;
20988;SDS011;10653;47.052;15.410;2023-06-14T13:22:29;4.90;;;3.67;;
20988;SDS011;10653;47.052;15.410;2023-06-14T13:24:55;3.70;;;3.20;;
20988;SDS011;10653;47.052;15.410;2023-06-14T13:27:21;4.87;;;4.20;;
20988;SDS011;10653;47.052;15.410;2023-06-14T13:29:49;5.63;;;3.90;;
20988;SDS011;10653;47.052;15.410;2023-06-14T13:32:15;3.90;;;3.53;;
20988;SDS011;10653;47.052;15.410;2023-06-14T13:34:41;3.37;;;3.07;;
20988;SDS011;10653;47.052;15.410;2023-06-14T13:37:07;4.87;;;4.47;;
20988;SDS011;10653;47.052;15.410;2023-06-14T13:39:33;4.93;;;4.07;;
20988;SDS011;10653;47.052;15.410;2023-06-14T13:42:02;7.53;;;3.80;;
20988;SDS011;10653;47.052;15.410;2023-06-14T13:44:28;3.30;;;3.00;;
20988;SDS011;10653;47.052;15.410;2023-06-14T13:46:54;4.77;;;4.10;;
20988;SDS011;10653;47.052;15.410;2023-06-14T13:49:20;6.47;;;3.90;;
20988;SDS011;10653;47.052;15.410;2023-06-14T13:51:46;4.00;;;3.60;;
20988;SDS011;10653;47.052;15.410;2023-06-14T13:54:12;5.50;;;4.37;;
20988;SDS011;10653;47.052;15.410;2023-06-14T13:56:42;3.53;;;3.17;;
20988;SDS011;10653;47.052;15.410;2023-06-14T13:59:08;3.97;;;3.57;;
20988;SDS011;10653;47.052;15.410;2023-06-14T14:01:34;4.90;;;4.50;;
20988;SDS011;10653;47.052;15.410;2023-06-14T14:04:00;7.40;;;4.07;;
20988;SDS011;10653;47.052;15.410;2023-06-14T14:06:27;4.57;;;4.17;;
20988;SDS011;10653;47.052;15.410;2023-06-14T14:08:53;4.00;;;3.70;;
20988;SDS011;10653;47.052;15.410;2023-06-14T14:11:19;6.43;;;4.43;;
20988;SDS011;10653;47.052;15.410;2023-06-14T14:13:45;5.57;;;4.40;;
20988;SDS011;10653;47.052;15.410;2023-06-14T14:16:12;4.90;;;4.50;;
20988;SDS011;10653;47.052;15.410;2023-06-14T14:18:38;4.40;;;4.00;;
20988;SDS011;10653;47.052;15.410;2023-06-14T14:21:05;8.33;;;5.67;;
20988;SDS011;10653;47.052;15.410;2023-06-14T14:23:31;5.47;;;4.93;;
20988;SDS011;10653;47.052;15.410;2023-06-14T14:25:57;5.63;;;4.90;;
20988;SDS011;10653;47.052;15.410;2023-06-14T14:28:23;4.40;;;4.00;;
20988;SDS011;10653;47.052;15.410;2023-06-14T14:30:49;5.03;;;4.60;;
20988;SDS011;10653;47.052;15.410;2023-06-14T14:33:15;5.40;;;4.30;;
20988;SDS011;10653;47.052;15.410;2023-06-14T14:35:45;4.63;;;4.23;;
20988;SDS011;10653;47.052;15.410;2023-06-14T14:38:15;5.63;;;4.37;;
20988;SDS011;10653;47.052;15.410;2023-06-14T14:40:41;4.77;;;3.57;;
20988;SDS011;10653;47.052;15.410;2023-06-14T14:43:07;5.53;;;3.53;;
20988;SDS011;10653;47.052;15.410;2023-06-14T14:45:33;5.07;;;4.20;;
20988;SDS011;10653;47.052;15.410;2023-06-14T14:48:00;3.80;;;3.50;;